<?xml version="1.0" encoding="UTF-8" standalone="no" ?>
<gpx xmlns="http://www.topografix.com/GPX/1/1" xmlns:xsi="http://www.w3.org/2001/XMLSchema-instance" xsi:schemaLocation="http://www.topografix.com/GPX/1/1 http://www.topografix.com/GPX/1/1/gpx.xsd" version="1.1" creator="VisuGPX - https://www.visugpx.com">
  <metadata>
    <name>Pré qui tue </name>
    <desc><![CDATA[

]]></desc>
  </metadata>
  <trk>
    <name><![CDATA[Pré qui tue ]]></name>
    <extensions>
      <line xmlns="http://www.topografix.com/GPX/gpx_style/0/2">
        <color>0000FF</color>
        <width>4</width>
      </line>
    </extensions>
    <trkseg>
      <trkpt lat="45.29658" lon="5.84556">
        <ele>1230.4379882812</ele>
        <time>2017-02-09T11:12:25Z</time>
      </trkpt>
      <trkpt lat="45.29665" lon="5.8455">
        <ele>1229.4379882812</ele>
        <time>2017-02-09T11:12:40Z</time>
      </trkpt>
      <trkpt lat="45.29671" lon="5.84544">
        <ele>1229.4379882812</ele>
        <time>2017-02-09T11:12:49Z</time>
      </trkpt>
      <trkpt lat="45.29677" lon="5.84537">
        <ele>1232.4379882812</ele>
        <time>2017-02-09T11:13:17Z</time>
      </trkpt>
      <trkpt lat="45.29686" lon="5.84533">
        <ele>1234.4379882812</ele>
        <time>2017-02-09T11:13:23Z</time>
      </trkpt>
      <trkpt lat="45.29694" lon="5.8453">
        <ele>1234.4379882812</ele>
        <time>2017-02-09T11:13:30Z</time>
      </trkpt>
      <trkpt lat="45.29701" lon="5.84534">
        <ele>1239.4389648438</ele>
        <time>2017-02-09T11:13:38Z</time>
      </trkpt>
      <trkpt lat="45.29709" lon="5.84533">
        <ele>1243.4389648438</ele>
        <time>2017-02-09T11:13:46Z</time>
      </trkpt>
      <trkpt lat="45.29718" lon="5.84534">
        <ele>1245.4389648438</ele>
        <time>2017-02-09T11:14:00Z</time>
      </trkpt>
      <trkpt lat="45.29725" lon="5.84533">
        <ele>1245.4389648438</ele>
        <time>2017-02-09T11:14:08Z</time>
      </trkpt>
      <trkpt lat="45.29733" lon="5.84532">
        <ele>1248.4389648438</ele>
        <time>2017-02-09T11:14:15Z</time>
      </trkpt>
      <trkpt lat="45.29737" lon="5.84523">
        <ele>1250.4389648438</ele>
        <time>2017-02-09T11:14:26Z</time>
      </trkpt>
      <trkpt lat="45.29745" lon="5.84519">
        <ele>1249.4389648438</ele>
        <time>2017-02-09T11:14:58Z</time>
      </trkpt>
      <trkpt lat="45.29763" lon="5.84515">
        <ele>1252.4389648438</ele>
        <time>2017-02-09T11:15:09Z</time>
      </trkpt>
      <trkpt lat="45.29772" lon="5.84514">
        <ele>1252.4389648438</ele>
        <time>2017-02-09T11:15:14Z</time>
      </trkpt>
      <trkpt lat="45.29785" lon="5.84526">
        <ele>1256.4389648438</ele>
        <time>2017-02-09T11:15:24Z</time>
      </trkpt>
      <trkpt lat="45.29793" lon="5.84526">
        <ele>1261.4389648438</ele>
        <time>2017-02-09T11:15:45Z</time>
      </trkpt>
      <trkpt lat="45.29801" lon="5.84528">
        <ele>1271.4389648438</ele>
        <time>2017-02-09T11:16:07Z</time>
      </trkpt>
      <trkpt lat="45.29808" lon="5.84526">
        <ele>1273.4389648438</ele>
        <time>2017-02-09T11:16:13Z</time>
      </trkpt>
      <trkpt lat="45.29814" lon="5.84519">
        <ele>1276.4389648438</ele>
        <time>2017-02-09T11:16:23Z</time>
      </trkpt>
      <trkpt lat="45.2982" lon="5.84513">
        <ele>1279.4389648438</ele>
        <time>2017-02-09T11:16:29Z</time>
      </trkpt>
      <trkpt lat="45.29829" lon="5.8451">
        <ele>1280.4389648438</ele>
        <time>2017-02-09T11:16:34Z</time>
      </trkpt>
      <trkpt lat="45.29836" lon="5.84513">
        <ele>1287.4389648438</ele>
        <time>2017-02-09T11:17:04Z</time>
      </trkpt>
      <trkpt lat="45.29844" lon="5.84513">
        <ele>1285.4389648438</ele>
        <time>2017-02-09T11:17:11Z</time>
      </trkpt>
      <trkpt lat="45.29851" lon="5.8451">
        <ele>1288.4389648438</ele>
        <time>2017-02-09T11:17:16Z</time>
      </trkpt>
      <trkpt lat="45.29858" lon="5.84511">
        <ele>1290.4389648438</ele>
        <time>2017-02-09T11:17:24Z</time>
      </trkpt>
      <trkpt lat="45.29866" lon="5.84509">
        <ele>1297.4389648438</ele>
        <time>2017-02-09T11:17:38Z</time>
      </trkpt>
      <trkpt lat="45.29873" lon="5.84506">
        <ele>1299.4389648438</ele>
        <time>2017-02-09T11:17:54Z</time>
      </trkpt>
      <trkpt lat="45.29881" lon="5.84503">
        <ele>1302.4389648438</ele>
        <time>2017-02-09T11:18:16Z</time>
      </trkpt>
      <trkpt lat="45.29888" lon="5.84504">
        <ele>1305.4389648438</ele>
        <time>2017-02-09T11:18:29Z</time>
      </trkpt>
      <trkpt lat="45.29896" lon="5.845">
        <ele>1201.4389648438</ele>
        <time>2017-02-09T11:18:50Z</time>
      </trkpt>
      <trkpt lat="45.29903" lon="5.84501">
        <ele>1268.4389648438</ele>
        <time>2017-02-09T11:18:56Z</time>
      </trkpt>
      <trkpt lat="45.29912" lon="5.84503">
        <ele>1298.4389648438</ele>
        <time>2017-02-09T11:19:12Z</time>
      </trkpt>
      <trkpt lat="45.29919" lon="5.84507">
        <ele>1304.4389648438</ele>
        <time>2017-02-09T11:19:17Z</time>
      </trkpt>
      <trkpt lat="45.29927" lon="5.8451">
        <ele>1319.4389648438</ele>
        <time>2017-02-09T11:19:38Z</time>
      </trkpt>
      <trkpt lat="45.29936" lon="5.8451">
        <ele>1319.4389648438</ele>
        <time>2017-02-09T11:19:44Z</time>
      </trkpt>
      <trkpt lat="45.29941" lon="5.84518">
        <ele>1322.4389648438</ele>
        <time>2017-02-09T11:19:52Z</time>
      </trkpt>
      <trkpt lat="45.29946" lon="5.84525">
        <ele>1331.4389648438</ele>
        <time>2017-02-09T11:20:01Z</time>
      </trkpt>
      <trkpt lat="45.29954" lon="5.84525">
        <ele>1333.4389648438</ele>
        <time>2017-02-09T11:20:09Z</time>
      </trkpt>
      <trkpt lat="45.29962" lon="5.84521">
        <ele>1333.4389648438</ele>
        <time>2017-02-09T11:20:14Z</time>
      </trkpt>
      <trkpt lat="45.29969" lon="5.84519">
        <ele>1333.4389648438</ele>
        <time>2017-02-09T11:20:23Z</time>
      </trkpt>
      <trkpt lat="45.29981" lon="5.84522">
        <ele>1341.4389648438</ele>
        <time>2017-02-09T11:20:49Z</time>
      </trkpt>
      <trkpt lat="45.2999" lon="5.84519">
        <ele>1345.4389648438</ele>
        <time>2017-02-09T11:20:58Z</time>
      </trkpt>
      <trkpt lat="45.3" lon="5.84523">
        <ele>1348.4389648438</ele>
        <time>2017-02-09T11:21:25Z</time>
      </trkpt>
      <trkpt lat="45.30007" lon="5.84523">
        <ele>1349.4389648438</ele>
        <time>2017-02-09T11:21:30Z</time>
      </trkpt>
      <trkpt lat="45.30014" lon="5.84521">
        <ele>1356.4389648438</ele>
        <time>2017-02-09T11:21:42Z</time>
      </trkpt>
      <trkpt lat="45.3002" lon="5.84514">
        <ele>1358.4389648438</ele>
        <time>2017-02-09T11:21:49Z</time>
      </trkpt>
      <trkpt lat="45.30028" lon="5.84516">
        <ele>1359.4389648438</ele>
        <time>2017-02-09T11:23:53Z</time>
      </trkpt>
      <trkpt lat="45.30037" lon="5.84514">
        <ele>1360.4389648438</ele>
        <time>2017-02-09T11:23:58Z</time>
      </trkpt>
      <trkpt lat="45.30044" lon="5.84517">
        <ele>1363.4389648438</ele>
        <time>2017-02-09T11:24:04Z</time>
      </trkpt>
      <trkpt lat="45.30055" lon="5.84518">
        <ele>1367.4389648438</ele>
        <time>2017-02-09T11:24:11Z</time>
      </trkpt>
      <trkpt lat="45.30062" lon="5.84513">
        <ele>1367.4389648438</ele>
        <time>2017-02-09T11:24:27Z</time>
      </trkpt>
      <trkpt lat="45.3007" lon="5.84511">
        <ele>1369.4389648438</ele>
        <time>2017-02-09T11:24:40Z</time>
      </trkpt>
      <trkpt lat="45.30085" lon="5.84515">
        <ele>1371.4389648438</ele>
        <time>2017-02-09T11:24:49Z</time>
      </trkpt>
      <trkpt lat="45.30092" lon="5.84512">
        <ele>1374.4389648438</ele>
        <time>2017-02-09T11:24:54Z</time>
      </trkpt>
      <trkpt lat="45.30099" lon="5.84514">
        <ele>1376.4389648438</ele>
        <time>2017-02-09T11:25:01Z</time>
      </trkpt>
      <trkpt lat="45.30107" lon="5.84512">
        <ele>1379.4389648438</ele>
        <time>2017-02-09T11:25:08Z</time>
      </trkpt>
      <trkpt lat="45.30116" lon="5.84514">
        <ele>1380.4389648438</ele>
        <time>2017-02-09T11:25:14Z</time>
      </trkpt>
      <trkpt lat="45.30122" lon="5.84519">
        <ele>1385.4389648438</ele>
        <time>2017-02-09T11:25:29Z</time>
      </trkpt>
      <trkpt lat="45.30129" lon="5.84522">
        <ele>1390.4389648438</ele>
        <time>2017-02-09T11:25:36Z</time>
      </trkpt>
      <trkpt lat="45.30141" lon="5.84525">
        <ele>1395.4389648438</ele>
        <time>2017-02-09T11:25:50Z</time>
      </trkpt>
      <trkpt lat="45.30149" lon="5.84526">
        <ele>1397.4389648438</ele>
        <time>2017-02-09T11:25:57Z</time>
      </trkpt>
      <trkpt lat="45.30157" lon="5.84528">
        <ele>1395.4389648438</ele>
        <time>2017-02-09T11:26:05Z</time>
      </trkpt>
      <trkpt lat="45.30164" lon="5.84531">
        <ele>1398.4389648438</ele>
        <time>2017-02-09T11:26:16Z</time>
      </trkpt>
      <trkpt lat="45.30172" lon="5.84532">
        <ele>1407.4389648438</ele>
        <time>2017-02-09T11:26:44Z</time>
      </trkpt>
      <trkpt lat="45.30179" lon="5.84536">
        <ele>1412.4389648438</ele>
        <time>2017-02-09T11:26:52Z</time>
      </trkpt>
      <trkpt lat="45.30196" lon="5.84536">
        <ele>1411.4399414062</ele>
        <time>2017-02-09T11:27:06Z</time>
      </trkpt>
      <trkpt lat="45.30204" lon="5.84539">
        <ele>1422.4399414062</ele>
        <time>2017-02-09T11:27:21Z</time>
      </trkpt>
      <trkpt lat="45.30209" lon="5.84546">
        <ele>1424.4399414062</ele>
        <time>2017-02-09T11:27:30Z</time>
      </trkpt>
      <trkpt lat="45.30213" lon="5.84556">
        <ele>1422.4399414062</ele>
        <time>2017-02-09T11:28:09Z</time>
      </trkpt>
      <trkpt lat="45.30222" lon="5.84556">
        <ele>1431.4399414062</ele>
        <time>2017-02-09T11:28:15Z</time>
      </trkpt>
      <trkpt lat="45.30233" lon="5.84554">
        <ele>1432.4399414062</ele>
        <time>2017-02-09T11:28:24Z</time>
      </trkpt>
      <trkpt lat="45.30243" lon="5.8454">
        <ele>1430.4399414062</ele>
        <time>2017-02-09T11:28:31Z</time>
      </trkpt>
      <trkpt lat="45.3025" lon="5.84546">
        <ele>1431.4399414062</ele>
        <time>2017-02-09T11:28:33Z</time>
      </trkpt>
      <trkpt lat="45.30258" lon="5.84533">
        <ele>1435.4399414062</ele>
        <time>2017-02-09T11:28:45Z</time>
      </trkpt>
      <trkpt lat="45.30264" lon="5.84526">
        <ele>1443.4399414062</ele>
        <time>2017-02-09T11:28:52Z</time>
      </trkpt>
      <trkpt lat="45.30272" lon="5.84525">
        <ele>1442.4399414062</ele>
        <time>2017-02-09T11:28:58Z</time>
      </trkpt>
      <trkpt lat="45.30279" lon="5.84526">
        <ele>1443.4399414062</ele>
        <time>2017-02-09T11:29:07Z</time>
      </trkpt>
      <trkpt lat="45.30286" lon="5.84524">
        <ele>1448.4399414062</ele>
        <time>2017-02-09T11:29:20Z</time>
      </trkpt>
      <trkpt lat="45.30293" lon="5.84527">
        <ele>1449.4399414062</ele>
        <time>2017-02-09T11:29:33Z</time>
      </trkpt>
      <trkpt lat="45.30301" lon="5.84524">
        <ele>1451.4399414062</ele>
        <time>2017-02-09T11:29:42Z</time>
      </trkpt>
      <trkpt lat="45.30308" lon="5.84525">
        <ele>1455.4399414062</ele>
        <time>2017-02-09T11:29:54Z</time>
      </trkpt>
      <trkpt lat="45.30316" lon="5.84524">
        <ele>1457.4399414062</ele>
        <time>2017-02-09T11:30:02Z</time>
      </trkpt>
      <trkpt lat="45.30324" lon="5.8452">
        <ele>1460.4399414062</ele>
        <time>2017-02-09T11:30:12Z</time>
      </trkpt>
      <trkpt lat="45.30332" lon="5.84519">
        <ele>1463.4399414062</ele>
        <time>2017-02-09T11:30:19Z</time>
      </trkpt>
      <trkpt lat="45.30339" lon="5.84516">
        <ele>1464.4399414062</ele>
        <time>2017-02-09T11:30:28Z</time>
      </trkpt>
      <trkpt lat="45.30346" lon="5.84521">
        <ele>1467.4399414062</ele>
        <time>2017-02-09T11:30:42Z</time>
      </trkpt>
      <trkpt lat="45.30354" lon="5.84522">
        <ele>1468.4399414062</ele>
        <time>2017-02-09T11:30:50Z</time>
      </trkpt>
      <trkpt lat="45.30362" lon="5.84521">
        <ele>1470.4399414062</ele>
        <time>2017-02-09T11:30:58Z</time>
      </trkpt>
      <trkpt lat="45.30369" lon="5.84526">
        <ele>1473.4399414062</ele>
        <time>2017-02-09T11:31:09Z</time>
      </trkpt>
      <trkpt lat="45.30377" lon="5.84529">
        <ele>1474.4399414062</ele>
        <time>2017-02-09T11:31:18Z</time>
      </trkpt>
      <trkpt lat="45.30385" lon="5.84531">
        <ele>1479.4399414062</ele>
        <time>2017-02-09T11:31:31Z</time>
      </trkpt>
      <trkpt lat="45.30392" lon="5.84533">
        <ele>1480.4399414062</ele>
        <time>2017-02-09T11:31:39Z</time>
      </trkpt>
      <trkpt lat="45.304" lon="5.84533">
        <ele>1482.4399414062</ele>
        <time>2017-02-09T11:31:48Z</time>
      </trkpt>
      <trkpt lat="45.30408" lon="5.84532">
        <ele>1482.4399414062</ele>
        <time>2017-02-09T11:31:54Z</time>
      </trkpt>
      <trkpt lat="45.30415" lon="5.84529">
        <ele>1489.4399414062</ele>
        <time>2017-02-09T11:32:15Z</time>
      </trkpt>
      <trkpt lat="45.30423" lon="5.84529">
        <ele>1490.4399414062</ele>
        <time>2017-02-09T11:32:42Z</time>
      </trkpt>
      <trkpt lat="45.30431" lon="5.84528">
        <ele>1493.4399414062</ele>
        <time>2017-02-09T11:32:48Z</time>
      </trkpt>
      <trkpt lat="45.30439" lon="5.84528">
        <ele>1495.4399414062</ele>
        <time>2017-02-09T11:32:57Z</time>
      </trkpt>
      <trkpt lat="45.30447" lon="5.84531">
        <ele>1495.4399414062</ele>
        <time>2017-02-09T11:33:05Z</time>
      </trkpt>
      <trkpt lat="45.30455" lon="5.84533">
        <ele>1497.4399414062</ele>
        <time>2017-02-09T11:33:14Z</time>
      </trkpt>
      <trkpt lat="45.30462" lon="5.84535">
        <ele>1498.4399414062</ele>
        <time>2017-02-09T11:33:22Z</time>
      </trkpt>
      <trkpt lat="45.30471" lon="5.84537">
        <ele>1500.4399414062</ele>
        <time>2017-02-09T11:33:34Z</time>
      </trkpt>
      <trkpt lat="45.30479" lon="5.84539">
        <ele>1502.4399414062</ele>
        <time>2017-02-09T11:33:43Z</time>
      </trkpt>
      <trkpt lat="45.30487" lon="5.84539">
        <ele>1506.4399414062</ele>
        <time>2017-02-09T11:33:57Z</time>
      </trkpt>
      <trkpt lat="45.30494" lon="5.84539">
        <ele>1510.4399414062</ele>
        <time>2017-02-09T11:34:06Z</time>
      </trkpt>
      <trkpt lat="45.30502" lon="5.84538">
        <ele>1512.4399414062</ele>
        <time>2017-02-09T11:34:17Z</time>
      </trkpt>
      <trkpt lat="45.3051" lon="5.84537">
        <ele>1519.4399414062</ele>
        <time>2017-02-09T11:34:25Z</time>
      </trkpt>
      <trkpt lat="45.30518" lon="5.8454">
        <ele>1521.4399414062</ele>
        <time>2017-02-09T11:34:35Z</time>
      </trkpt>
      <trkpt lat="45.30525" lon="5.84543">
        <ele>1526.4399414062</ele>
        <time>2017-02-09T11:34:43Z</time>
      </trkpt>
      <trkpt lat="45.30532" lon="5.84547">
        <ele>1525.4399414062</ele>
        <time>2017-02-09T11:34:55Z</time>
      </trkpt>
      <trkpt lat="45.3054" lon="5.84551">
        <ele>1526.4399414062</ele>
        <time>2017-02-09T11:35:08Z</time>
      </trkpt>
      <trkpt lat="45.30547" lon="5.84553">
        <ele>1532.4399414062</ele>
        <time>2017-02-09T11:35:18Z</time>
      </trkpt>
      <trkpt lat="45.30544" lon="5.84562">
        <ele>1536.4399414062</ele>
        <time>2017-02-09T11:35:27Z</time>
      </trkpt>
      <trkpt lat="45.3054" lon="5.84572">
        <ele>1540.4399414062</ele>
        <time>2017-02-09T11:35:38Z</time>
      </trkpt>
      <trkpt lat="45.30539" lon="5.84583">
        <ele>1541.4399414062</ele>
        <time>2017-02-09T11:35:47Z</time>
      </trkpt>
      <trkpt lat="45.30535" lon="5.84592">
        <ele>1542.4399414062</ele>
        <time>2017-02-09T11:35:55Z</time>
      </trkpt>
      <trkpt lat="45.30532" lon="5.84601">
        <ele>1543.4399414062</ele>
        <time>2017-02-09T11:36:05Z</time>
      </trkpt>
      <trkpt lat="45.30529" lon="5.84611">
        <ele>1546.4399414062</ele>
        <time>2017-02-09T11:36:14Z</time>
      </trkpt>
      <trkpt lat="45.30526" lon="5.84621">
        <ele>1547.4399414062</ele>
        <time>2017-02-09T11:36:22Z</time>
      </trkpt>
      <trkpt lat="45.30525" lon="5.84633">
        <ele>1552.4399414062</ele>
        <time>2017-02-09T11:36:34Z</time>
      </trkpt>
      <trkpt lat="45.30522" lon="5.84643">
        <ele>1554.4399414062</ele>
        <time>2017-02-09T11:36:43Z</time>
      </trkpt>
      <trkpt lat="45.30521" lon="5.84654">
        <ele>1558.4399414062</ele>
        <time>2017-02-09T11:36:55Z</time>
      </trkpt>
      <trkpt lat="45.30521" lon="5.84664">
        <ele>1562.4399414062</ele>
        <time>2017-02-09T11:37:04Z</time>
      </trkpt>
      <trkpt lat="45.30529" lon="5.84668">
        <ele>1567.4399414062</ele>
        <time>2017-02-09T11:37:16Z</time>
      </trkpt>
      <trkpt lat="45.30537" lon="5.8467">
        <ele>1568.4399414062</ele>
        <time>2017-02-09T11:37:34Z</time>
      </trkpt>
      <trkpt lat="45.30544" lon="5.84671">
        <ele>1570.4399414062</ele>
        <time>2017-02-09T11:37:40Z</time>
      </trkpt>
      <trkpt lat="45.30552" lon="5.84673">
        <ele>1575.4399414062</ele>
        <time>2017-02-09T11:37:57Z</time>
      </trkpt>
      <trkpt lat="45.30559" lon="5.84677">
        <ele>1577.4399414062</ele>
        <time>2017-02-09T11:38:07Z</time>
      </trkpt>
      <trkpt lat="45.30567" lon="5.84679">
        <ele>1580.4399414062</ele>
        <time>2017-02-09T11:38:16Z</time>
      </trkpt>
      <trkpt lat="45.30574" lon="5.84683">
        <ele>1582.4410400391</ele>
        <time>2017-02-09T11:38:27Z</time>
      </trkpt>
      <trkpt lat="45.30582" lon="5.84685">
        <ele>1588.4410400391</ele>
        <time>2017-02-09T11:38:38Z</time>
      </trkpt>
      <trkpt lat="45.30589" lon="5.84691">
        <ele>1591.4410400391</ele>
        <time>2017-02-09T11:38:48Z</time>
      </trkpt>
      <trkpt lat="45.30595" lon="5.84696">
        <ele>1594.4410400391</ele>
        <time>2017-02-09T11:38:58Z</time>
      </trkpt>
      <trkpt lat="45.30603" lon="5.847">
        <ele>1595.4410400391</ele>
        <time>2017-02-09T11:39:10Z</time>
      </trkpt>
      <trkpt lat="45.3061" lon="5.84703">
        <ele>1598.4410400391</ele>
        <time>2017-02-09T11:39:24Z</time>
      </trkpt>
      <trkpt lat="45.30616" lon="5.84708">
        <ele>1598.4410400391</ele>
        <time>2017-02-09T11:39:31Z</time>
      </trkpt>
      <trkpt lat="45.30611" lon="5.84718">
        <ele>1602.4410400391</ele>
        <time>2017-02-09T11:39:52Z</time>
      </trkpt>
      <trkpt lat="45.30608" lon="5.84729">
        <ele>1600.4410400391</ele>
        <time>2017-02-09T11:40:01Z</time>
      </trkpt>
      <trkpt lat="45.30605" lon="5.84739">
        <ele>1604.4410400391</ele>
        <time>2017-02-09T11:40:11Z</time>
      </trkpt>
      <trkpt lat="45.30603" lon="5.84749">
        <ele>1608.4410400391</ele>
        <time>2017-02-09T11:40:20Z</time>
      </trkpt>
      <trkpt lat="45.30602" lon="5.84759">
        <ele>1610.4410400391</ele>
        <time>2017-02-09T11:40:29Z</time>
      </trkpt>
      <trkpt lat="45.30609" lon="5.84763">
        <ele>1616.4410400391</ele>
        <time>2017-02-09T11:40:40Z</time>
      </trkpt>
      <trkpt lat="45.30616" lon="5.84766">
        <ele>1620.4410400391</ele>
        <time>2017-02-09T11:40:49Z</time>
      </trkpt>
      <trkpt lat="45.30623" lon="5.84767">
        <ele>1622.4410400391</ele>
        <time>2017-02-09T11:41:00Z</time>
      </trkpt>
      <trkpt lat="45.30632" lon="5.84768">
        <ele>1628.4410400391</ele>
        <time>2017-02-09T11:41:09Z</time>
      </trkpt>
      <trkpt lat="45.30639" lon="5.84767">
        <ele>1633.4410400391</ele>
        <time>2017-02-09T11:41:18Z</time>
      </trkpt>
      <trkpt lat="45.30647" lon="5.84772">
        <ele>1635.4410400391</ele>
        <time>2017-02-09T11:41:33Z</time>
      </trkpt>
      <trkpt lat="45.30654" lon="5.84774">
        <ele>1636.4410400391</ele>
        <time>2017-02-09T11:41:39Z</time>
      </trkpt>
      <trkpt lat="45.30662" lon="5.84775">
        <ele>1641.4410400391</ele>
        <time>2017-02-09T11:41:53Z</time>
      </trkpt>
      <trkpt lat="45.3067" lon="5.84779">
        <ele>1643.4410400391</ele>
        <time>2017-02-09T11:42:04Z</time>
      </trkpt>
      <trkpt lat="45.30678" lon="5.84782">
        <ele>1644.4410400391</ele>
        <time>2017-02-09T11:42:12Z</time>
      </trkpt>
      <trkpt lat="45.30685" lon="5.84786">
        <ele>1643.4410400391</ele>
        <time>2017-02-09T11:42:24Z</time>
      </trkpt>
      <trkpt lat="45.3069" lon="5.84795">
        <ele>1646.4410400391</ele>
        <time>2017-02-09T11:42:43Z</time>
      </trkpt>
      <trkpt lat="45.30687" lon="5.84805">
        <ele>1648.4410400391</ele>
        <time>2017-02-09T11:42:50Z</time>
      </trkpt>
      <trkpt lat="45.30683" lon="5.84814">
        <ele>1651.4410400391</ele>
        <time>2017-02-09T11:43:00Z</time>
      </trkpt>
      <trkpt lat="45.3069" lon="5.84815">
        <ele>1656.4410400391</ele>
        <time>2017-02-09T11:43:14Z</time>
      </trkpt>
      <trkpt lat="45.30697" lon="5.84817">
        <ele>1660.4410400391</ele>
        <time>2017-02-09T11:43:21Z</time>
      </trkpt>
      <trkpt lat="45.30704" lon="5.84822">
        <ele>1660.4410400391</ele>
        <time>2017-02-09T11:43:34Z</time>
      </trkpt>
      <trkpt lat="45.30713" lon="5.84823">
        <ele>1662.4410400391</ele>
        <time>2017-02-09T11:43:51Z</time>
      </trkpt>
      <trkpt lat="45.3072" lon="5.84826">
        <ele>1667.4410400391</ele>
        <time>2017-02-09T11:44:07Z</time>
      </trkpt>
      <trkpt lat="45.30728" lon="5.84826">
        <ele>1668.4410400391</ele>
        <time>2017-02-09T11:44:14Z</time>
      </trkpt>
      <trkpt lat="45.30735" lon="5.84827">
        <ele>1673.4410400391</ele>
        <time>2017-02-09T11:44:22Z</time>
      </trkpt>
      <trkpt lat="45.30743" lon="5.8483">
        <ele>1675.4410400391</ele>
        <time>2017-02-09T11:44:34Z</time>
      </trkpt>
      <trkpt lat="45.3075" lon="5.84831">
        <ele>1680.4410400391</ele>
        <time>2017-02-09T11:45:02Z</time>
      </trkpt>
      <trkpt lat="45.30758" lon="5.84834">
        <ele>1686.4410400391</ele>
        <time>2017-02-09T11:45:18Z</time>
      </trkpt>
      <trkpt lat="45.30765" lon="5.84835">
        <ele>1689.4410400391</ele>
        <time>2017-02-09T11:45:31Z</time>
      </trkpt>
      <trkpt lat="45.30771" lon="5.84844">
        <ele>1690.4410400391</ele>
        <time>2017-02-09T11:45:50Z</time>
      </trkpt>
      <trkpt lat="45.30766" lon="5.84851">
        <ele>1693.4410400391</ele>
        <time>2017-02-09T11:46:02Z</time>
      </trkpt>
      <trkpt lat="45.30763" lon="5.84861">
        <ele>1696.4410400391</ele>
        <time>2017-02-09T11:46:07Z</time>
      </trkpt>
      <trkpt lat="45.30771" lon="5.84861">
        <ele>1703.4410400391</ele>
        <time>2017-02-09T11:46:34Z</time>
      </trkpt>
      <trkpt lat="45.30779" lon="5.84863">
        <ele>1704.4410400391</ele>
        <time>2017-02-09T11:46:44Z</time>
      </trkpt>
      <trkpt lat="45.30786" lon="5.84864">
        <ele>1707.4410400391</ele>
        <time>2017-02-09T11:46:59Z</time>
      </trkpt>
      <trkpt lat="45.30795" lon="5.84864">
        <ele>1712.4410400391</ele>
        <time>2017-02-09T11:47:13Z</time>
      </trkpt>
      <trkpt lat="45.30802" lon="5.84867">
        <ele>1717.4410400391</ele>
        <time>2017-02-09T11:47:20Z</time>
      </trkpt>
      <trkpt lat="45.3081" lon="5.84867">
        <ele>1721.4410400391</ele>
        <time>2017-02-09T11:47:34Z</time>
      </trkpt>
      <trkpt lat="45.30818" lon="5.84867">
        <ele>1723.4410400391</ele>
        <time>2017-02-09T11:47:51Z</time>
      </trkpt>
      <trkpt lat="45.30825" lon="5.84868">
        <ele>1722.4410400391</ele>
        <time>2017-02-09T11:47:58Z</time>
      </trkpt>
      <trkpt lat="45.30833" lon="5.8487">
        <ele>1723.4410400391</ele>
        <time>2017-02-09T11:48:29Z</time>
      </trkpt>
      <trkpt lat="45.3084" lon="5.84871">
        <ele>1725.4410400391</ele>
        <time>2017-02-09T11:48:35Z</time>
      </trkpt>
      <trkpt lat="45.30849" lon="5.8487">
        <ele>1728.4410400391</ele>
        <time>2017-02-09T11:48:41Z</time>
      </trkpt>
      <trkpt lat="45.30856" lon="5.8487">
        <ele>1730.4410400391</ele>
        <time>2017-02-09T11:48:49Z</time>
      </trkpt>
      <trkpt lat="45.30864" lon="5.84869">
        <ele>1735.4410400391</ele>
        <time>2017-02-09T11:49:00Z</time>
      </trkpt>
      <trkpt lat="45.30871" lon="5.8487">
        <ele>1739.4410400391</ele>
        <time>2017-02-09T11:49:17Z</time>
      </trkpt>
      <trkpt lat="45.30873" lon="5.84881">
        <ele>1742.4410400391</ele>
        <time>2017-02-09T11:49:40Z</time>
      </trkpt>
      <trkpt lat="45.30869" lon="5.8489">
        <ele>1742.4410400391</ele>
        <time>2017-02-09T11:49:46Z</time>
      </trkpt>
      <trkpt lat="45.30865" lon="5.84899">
        <ele>1743.4410400391</ele>
        <time>2017-02-09T11:49:53Z</time>
      </trkpt>
      <trkpt lat="45.30859" lon="5.84904">
        <ele>1745.4410400391</ele>
        <time>2017-02-09T11:49:59Z</time>
      </trkpt>
      <trkpt lat="45.30855" lon="5.84914">
        <ele>1745.4410400391</ele>
        <time>2017-02-09T11:50:20Z</time>
      </trkpt>
      <trkpt lat="45.30862" lon="5.84907">
        <ele>1755.4410400391</ele>
        <time>2017-02-09T11:50:43Z</time>
      </trkpt>
      <trkpt lat="45.30869" lon="5.84909">
        <ele>1758.4410400391</ele>
        <time>2017-02-09T11:50:56Z</time>
      </trkpt>
      <trkpt lat="45.30876" lon="5.84912">
        <ele>1761.4410400391</ele>
        <time>2017-02-09T11:51:06Z</time>
      </trkpt>
      <trkpt lat="45.30883" lon="5.84914">
        <ele>1766.4410400391</ele>
        <time>2017-02-09T11:51:57Z</time>
      </trkpt>
      <trkpt lat="45.30892" lon="5.84915">
        <ele>1766.4410400391</ele>
        <time>2017-02-09T11:52:06Z</time>
      </trkpt>
      <trkpt lat="45.30899" lon="5.84918">
        <ele>1770.4420166016</ele>
        <time>2017-02-09T11:52:18Z</time>
      </trkpt>
      <trkpt lat="45.30907" lon="5.8492">
        <ele>1773.4420166016</ele>
        <time>2017-02-09T11:52:29Z</time>
      </trkpt>
      <trkpt lat="45.30915" lon="5.84919">
        <ele>1771.4420166016</ele>
        <time>2017-02-09T11:52:43Z</time>
      </trkpt>
      <trkpt lat="45.30922" lon="5.84915">
        <ele>1776.4420166016</ele>
        <time>2017-02-09T11:52:55Z</time>
      </trkpt>
      <trkpt lat="45.30929" lon="5.84913">
        <ele>1776.4420166016</ele>
        <time>2017-02-09T11:53:07Z</time>
      </trkpt>
      <trkpt lat="45.30937" lon="5.84916">
        <ele>1775.4420166016</ele>
        <time>2017-02-09T11:53:39Z</time>
      </trkpt>
      <trkpt lat="45.30945" lon="5.84915">
        <ele>1781.4420166016</ele>
        <time>2017-02-09T11:53:55Z</time>
      </trkpt>
      <trkpt lat="45.30952" lon="5.84916">
        <ele>1784.4420166016</ele>
        <time>2017-02-09T11:54:03Z</time>
      </trkpt>
      <trkpt lat="45.30953" lon="5.84928">
        <ele>1787.4420166016</ele>
        <time>2017-02-09T11:54:24Z</time>
      </trkpt>
      <trkpt lat="45.30948" lon="5.84935">
        <ele>1789.4420166016</ele>
        <time>2017-02-09T11:54:37Z</time>
      </trkpt>
      <trkpt lat="45.30943" lon="5.84944">
        <ele>1792.4420166016</ele>
        <time>2017-02-09T11:54:48Z</time>
      </trkpt>
      <trkpt lat="45.3095" lon="5.84949">
        <ele>1800.4420166016</ele>
        <time>2017-02-09T11:55:33Z</time>
      </trkpt>
      <trkpt lat="45.30957" lon="5.84952">
        <ele>1804.4420166016</ele>
        <time>2017-02-09T11:55:43Z</time>
      </trkpt>
      <trkpt lat="45.30965" lon="5.84953">
        <ele>1806.4420166016</ele>
        <time>2017-02-09T11:55:52Z</time>
      </trkpt>
      <trkpt lat="45.30973" lon="5.84954">
        <ele>1807.4420166016</ele>
        <time>2017-02-09T11:56:11Z</time>
      </trkpt>
      <trkpt lat="45.30981" lon="5.84953">
        <ele>1808.4420166016</ele>
        <time>2017-02-09T11:56:19Z</time>
      </trkpt>
      <trkpt lat="45.30988" lon="5.84952">
        <ele>1809.4420166016</ele>
        <time>2017-02-09T11:56:28Z</time>
      </trkpt>
      <trkpt lat="45.30996" lon="5.84951">
        <ele>1806.4420166016</ele>
        <time>2017-02-09T11:56:37Z</time>
      </trkpt>
      <trkpt lat="45.31004" lon="5.84955">
        <ele>1815.4420166016</ele>
        <time>2017-02-09T11:56:52Z</time>
      </trkpt>
      <trkpt lat="45.31012" lon="5.84957">
        <ele>1818.4420166016</ele>
        <time>2017-02-09T11:57:02Z</time>
      </trkpt>
      <trkpt lat="45.31019" lon="5.8496">
        <ele>1819.4420166016</ele>
        <time>2017-02-09T11:57:14Z</time>
      </trkpt>
      <trkpt lat="45.3102" lon="5.8497">
        <ele>1823.4420166016</ele>
        <time>2017-02-09T11:58:09Z</time>
      </trkpt>
      <trkpt lat="45.31028" lon="5.84968">
        <ele>1826.4420166016</ele>
        <time>2017-02-09T11:59:39Z</time>
      </trkpt>
      <trkpt lat="45.31036" lon="5.84967">
        <ele>1823.4420166016</ele>
        <time>2017-02-09T11:59:48Z</time>
      </trkpt>
      <trkpt lat="45.31043" lon="5.84972">
        <ele>1823.4420166016</ele>
        <time>2017-02-09T11:59:57Z</time>
      </trkpt>
      <trkpt lat="45.3105" lon="5.84969">
        <ele>1830.4420166016</ele>
        <time>2017-02-09T12:00:07Z</time>
      </trkpt>
      <trkpt lat="45.31056" lon="5.8496">
        <ele>1831.4420166016</ele>
        <time>2017-02-09T12:01:22Z</time>
      </trkpt>
      <trkpt lat="45.31064" lon="5.84958">
        <ele>1828.4420166016</ele>
        <time>2017-02-09T12:01:27Z</time>
      </trkpt>
      <trkpt lat="45.31068" lon="5.84931">
        <ele>1828.4420166016</ele>
        <time>2017-02-09T12:01:38Z</time>
      </trkpt>
      <trkpt lat="45.31067" lon="5.84921">
        <ele>1812.4420166016</ele>
        <time>2017-02-09T12:01:54Z</time>
      </trkpt>
      <trkpt lat="45.31062" lon="5.84913">
        <ele>1807.4420166016</ele>
        <time>2017-02-09T12:02:02Z</time>
      </trkpt>
      <trkpt lat="45.31054" lon="5.84905">
        <ele>1795.4420166016</ele>
        <time>2017-02-09T12:03:24Z</time>
      </trkpt>
      <trkpt lat="45.31051" lon="5.84895">
        <ele>1792.4420166016</ele>
        <time>2017-02-09T12:03:27Z</time>
      </trkpt>
      <trkpt lat="45.31049" lon="5.84884">
        <ele>1782.4420166016</ele>
        <time>2017-02-09T12:03:37Z</time>
      </trkpt>
      <trkpt lat="45.31046" lon="5.84873">
        <ele>1779.4420166016</ele>
        <time>2017-02-09T12:03:40Z</time>
      </trkpt>
      <trkpt lat="45.31042" lon="5.84864">
        <ele>1776.4420166016</ele>
        <time>2017-02-09T12:03:43Z</time>
      </trkpt>
      <trkpt lat="45.31034" lon="5.84846">
        <ele>1686.4420166016</ele>
        <time>2017-02-09T12:03:49Z</time>
      </trkpt>
      <trkpt lat="45.31043" lon="5.84829">
        <ele>1754.4420166016</ele>
        <time>2017-02-09T12:03:58Z</time>
      </trkpt>
      <trkpt lat="45.3104" lon="5.84817">
        <ele>1755.4420166016</ele>
        <time>2017-02-09T12:04:04Z</time>
      </trkpt>
      <trkpt lat="45.31044" lon="5.84795">
        <ele>1749.4420166016</ele>
        <time>2017-02-09T12:04:13Z</time>
      </trkpt>
      <trkpt lat="45.31044" lon="5.84782">
        <ele>1744.4420166016</ele>
        <time>2017-02-09T12:04:18Z</time>
      </trkpt>
      <trkpt lat="45.31036" lon="5.84763">
        <ele>1734.4420166016</ele>
        <time>2017-02-09T12:04:26Z</time>
      </trkpt>
      <trkpt lat="45.31037" lon="5.84751">
        <ele>1729.4420166016</ele>
        <time>2017-02-09T12:04:29Z</time>
      </trkpt>
      <trkpt lat="45.31035" lon="5.84728">
        <ele>1721.4420166016</ele>
        <time>2017-02-09T12:04:42Z</time>
      </trkpt>
      <trkpt lat="45.31036" lon="5.84704">
        <ele>1715.4420166016</ele>
        <time>2017-02-09T12:04:48Z</time>
      </trkpt>
      <trkpt lat="45.31034" lon="5.84694">
        <ele>1703.4410400391</ele>
        <time>2017-02-09T12:04:53Z</time>
      </trkpt>
      <trkpt lat="45.31026" lon="5.84689">
        <ele>1697.4410400391</ele>
        <time>2017-02-09T12:04:58Z</time>
      </trkpt>
      <trkpt lat="45.3103" lon="5.84669">
        <ele>1691.4410400391</ele>
        <time>2017-02-09T12:05:08Z</time>
      </trkpt>
      <trkpt lat="45.31036" lon="5.84661">
        <ele>1684.4410400391</ele>
        <time>2017-02-09T12:05:14Z</time>
      </trkpt>
      <trkpt lat="45.31028" lon="5.84657">
        <ele>1680.4410400391</ele>
        <time>2017-02-09T12:05:20Z</time>
      </trkpt>
      <trkpt lat="45.3102" lon="5.84654">
        <ele>1680.4410400391</ele>
        <time>2017-02-09T12:05:28Z</time>
      </trkpt>
      <trkpt lat="45.31012" lon="5.8465">
        <ele>1675.4410400391</ele>
        <time>2017-02-09T12:05:36Z</time>
      </trkpt>
      <trkpt lat="45.31005" lon="5.84645">
        <ele>1672.4410400391</ele>
        <time>2017-02-09T12:06:08Z</time>
      </trkpt>
      <trkpt lat="45.31013" lon="5.84643">
        <ele>1671.4410400391</ele>
        <time>2017-02-09T12:06:18Z</time>
      </trkpt>
      <trkpt lat="45.3102" lon="5.8464">
        <ele>1669.4410400391</ele>
        <time>2017-02-09T12:06:28Z</time>
      </trkpt>
      <trkpt lat="45.31034" lon="5.84626">
        <ele>1669.4410400391</ele>
        <time>2017-02-09T12:06:36Z</time>
      </trkpt>
      <trkpt lat="45.31039" lon="5.84618">
        <ele>1668.4410400391</ele>
        <time>2017-02-09T12:06:39Z</time>
      </trkpt>
      <trkpt lat="45.31042" lon="5.84609">
        <ele>1663.4410400391</ele>
        <time>2017-02-09T12:06:48Z</time>
      </trkpt>
      <trkpt lat="45.3105" lon="5.84602">
        <ele>1659.4410400391</ele>
        <time>2017-02-09T12:06:53Z</time>
      </trkpt>
      <trkpt lat="45.31055" lon="5.84595">
        <ele>1655.4410400391</ele>
        <time>2017-02-09T12:06:58Z</time>
      </trkpt>
      <trkpt lat="45.31048" lon="5.84592">
        <ele>1653.4410400391</ele>
        <time>2017-02-09T12:07:01Z</time>
      </trkpt>
      <trkpt lat="45.31041" lon="5.84588">
        <ele>1614.4410400391</ele>
        <time>2017-02-09T12:07:12Z</time>
      </trkpt>
      <trkpt lat="45.31042" lon="5.84575">
        <ele>1632.4410400391</ele>
        <time>2017-02-09T12:07:17Z</time>
      </trkpt>
      <trkpt lat="45.31027" lon="5.84569">
        <ele>1635.4410400391</ele>
        <time>2017-02-09T12:07:28Z</time>
      </trkpt>
      <trkpt lat="45.3102" lon="5.84564">
        <ele>1636.4410400391</ele>
        <time>2017-02-09T12:07:36Z</time>
      </trkpt>
      <trkpt lat="45.31016" lon="5.84539">
        <ele>1630.4410400391</ele>
        <time>2017-02-09T12:07:43Z</time>
      </trkpt>
      <trkpt lat="45.31019" lon="5.84516">
        <ele>1623.4410400391</ele>
        <time>2017-02-09T12:07:51Z</time>
      </trkpt>
      <trkpt lat="45.31022" lon="5.84506">
        <ele>1618.4410400391</ele>
        <time>2017-02-09T12:07:57Z</time>
      </trkpt>
      <trkpt lat="45.31018" lon="5.84495">
        <ele>1610.4410400391</ele>
        <time>2017-02-09T12:08:08Z</time>
      </trkpt>
      <trkpt lat="45.31009" lon="5.84493">
        <ele>1608.4410400391</ele>
        <time>2017-02-09T12:08:17Z</time>
      </trkpt>
      <trkpt lat="45.31002" lon="5.84477">
        <ele>1600.4410400391</ele>
        <time>2017-02-09T12:08:25Z</time>
      </trkpt>
      <trkpt lat="45.31002" lon="5.84466">
        <ele>1598.4410400391</ele>
        <time>2017-02-09T12:08:34Z</time>
      </trkpt>
      <trkpt lat="45.30994" lon="5.84464">
        <ele>1597.4410400391</ele>
        <time>2017-02-09T12:08:46Z</time>
      </trkpt>
      <trkpt lat="45.30985" lon="5.84464">
        <ele>1597.4410400391</ele>
        <time>2017-02-09T12:08:51Z</time>
      </trkpt>
      <trkpt lat="45.30968" lon="5.84454">
        <ele>1593.4410400391</ele>
        <time>2017-02-09T12:08:58Z</time>
      </trkpt>
      <trkpt lat="45.30962" lon="5.84443">
        <ele>1591.4410400391</ele>
        <time>2017-02-09T12:09:05Z</time>
      </trkpt>
      <trkpt lat="45.30955" lon="5.8444">
        <ele>1585.4410400391</ele>
        <time>2017-02-09T12:09:11Z</time>
      </trkpt>
      <trkpt lat="45.30948" lon="5.84431">
        <ele>1579.4410400391</ele>
        <time>2017-02-09T12:09:23Z</time>
      </trkpt>
      <trkpt lat="45.30945" lon="5.84418">
        <ele>1574.4410400391</ele>
        <time>2017-02-09T12:09:31Z</time>
      </trkpt>
      <trkpt lat="45.30941" lon="5.84408">
        <ele>1569.4410400391</ele>
        <time>2017-02-09T12:09:36Z</time>
      </trkpt>
      <trkpt lat="45.30933" lon="5.84391">
        <ele>1561.4410400391</ele>
        <time>2017-02-09T12:10:05Z</time>
      </trkpt>
      <trkpt lat="45.3092" lon="5.84374">
        <ele>1562.4410400391</ele>
        <time>2017-02-09T12:10:11Z</time>
      </trkpt>
      <trkpt lat="45.30928" lon="5.84343">
        <ele>1555.4410400391</ele>
        <time>2017-02-09T12:10:20Z</time>
      </trkpt>
      <trkpt lat="45.3093" lon="5.84331">
        <ele>1548.4410400391</ele>
        <time>2017-02-09T12:10:30Z</time>
      </trkpt>
      <trkpt lat="45.30929" lon="5.8432">
        <ele>1542.4410400391</ele>
        <time>2017-02-09T12:10:34Z</time>
      </trkpt>
      <trkpt lat="45.30927" lon="5.843">
        <ele>1540.4410400391</ele>
        <time>2017-02-09T12:10:41Z</time>
      </trkpt>
      <trkpt lat="45.3092" lon="5.8428">
        <ele>1531.4410400391</ele>
        <time>2017-02-09T12:10:48Z</time>
      </trkpt>
      <trkpt lat="45.30919" lon="5.84268">
        <ele>1527.4410400391</ele>
        <time>2017-02-09T12:10:52Z</time>
      </trkpt>
      <trkpt lat="45.30919" lon="5.84255">
        <ele>1523.4410400391</ele>
        <time>2017-02-09T12:10:57Z</time>
      </trkpt>
      <trkpt lat="45.30919" lon="5.84232">
        <ele>1513.4410400391</ele>
        <time>2017-02-09T12:11:09Z</time>
      </trkpt>
      <trkpt lat="45.30914" lon="5.84225">
        <ele>1516.4410400391</ele>
        <time>2017-02-09T12:11:36Z</time>
      </trkpt>
      <trkpt lat="45.30912" lon="5.84213">
        <ele>1515.4410400391</ele>
        <time>2017-02-09T12:11:41Z</time>
      </trkpt>
      <trkpt lat="45.309" lon="5.84196">
        <ele>1515.4410400391</ele>
        <time>2017-02-09T12:11:46Z</time>
      </trkpt>
      <trkpt lat="45.30888" lon="5.84176">
        <ele>1515.4399414062</ele>
        <time>2017-02-09T12:11:52Z</time>
      </trkpt>
      <trkpt lat="45.30874" lon="5.84162">
        <ele>1509.4399414062</ele>
        <time>2017-02-09T12:12:00Z</time>
      </trkpt>
      <trkpt lat="45.30857" lon="5.84159">
        <ele>1506.4399414062</ele>
        <time>2017-02-09T12:12:06Z</time>
      </trkpt>
      <trkpt lat="45.30849" lon="5.84155">
        <ele>1502.4399414062</ele>
        <time>2017-02-09T12:12:11Z</time>
      </trkpt>
      <trkpt lat="45.30834" lon="5.84163">
        <ele>1499.4399414062</ele>
        <time>2017-02-09T12:12:18Z</time>
      </trkpt>
      <trkpt lat="45.30821" lon="5.84169">
        <ele>1495.4399414062</ele>
        <time>2017-02-09T12:12:24Z</time>
      </trkpt>
      <trkpt lat="45.30813" lon="5.84168">
        <ele>1495.4399414062</ele>
        <time>2017-02-09T12:12:27Z</time>
      </trkpt>
      <trkpt lat="45.30798" lon="5.84161">
        <ele>1490.4399414062</ele>
        <time>2017-02-09T12:12:33Z</time>
      </trkpt>
      <trkpt lat="45.30782" lon="5.84159">
        <ele>1485.4399414062</ele>
        <time>2017-02-09T12:12:41Z</time>
      </trkpt>
      <trkpt lat="45.30766" lon="5.84149">
        <ele>1478.4399414062</ele>
        <time>2017-02-09T12:12:49Z</time>
      </trkpt>
      <trkpt lat="45.30753" lon="5.8414">
        <ele>1471.4399414062</ele>
        <time>2017-02-09T12:12:56Z</time>
      </trkpt>
      <trkpt lat="45.30745" lon="5.84138">
        <ele>1468.4399414062</ele>
        <time>2017-02-09T12:12:59Z</time>
      </trkpt>
      <trkpt lat="45.3073" lon="5.84143">
        <ele>1461.4399414062</ele>
        <time>2017-02-09T12:13:11Z</time>
      </trkpt>
      <trkpt lat="45.30726" lon="5.84132">
        <ele>1462.4399414062</ele>
        <time>2017-02-09T12:13:18Z</time>
      </trkpt>
      <trkpt lat="45.30698" lon="5.84129">
        <ele>1460.4399414062</ele>
        <time>2017-02-09T12:13:24Z</time>
      </trkpt>
      <trkpt lat="45.30689" lon="5.84135">
        <ele>1460.4399414062</ele>
        <time>2017-02-09T12:13:27Z</time>
      </trkpt>
      <trkpt lat="45.30667" lon="5.8416">
        <ele>1456.4399414062</ele>
        <time>2017-02-09T12:13:33Z</time>
      </trkpt>
      <trkpt lat="45.30657" lon="5.84162">
        <ele>1450.4399414062</ele>
        <time>2017-02-09T12:13:35Z</time>
      </trkpt>
      <trkpt lat="45.30638" lon="5.84164">
        <ele>1445.4399414062</ele>
        <time>2017-02-09T12:13:40Z</time>
      </trkpt>
      <trkpt lat="45.30622" lon="5.8417">
        <ele>1443.4399414062</ele>
        <time>2017-02-09T12:13:45Z</time>
      </trkpt>
      <trkpt lat="45.30602" lon="5.84149">
        <ele>1437.4399414062</ele>
        <time>2017-02-09T12:13:51Z</time>
      </trkpt>
      <trkpt lat="45.30578" lon="5.84137">
        <ele>1432.4399414062</ele>
        <time>2017-02-09T12:13:57Z</time>
      </trkpt>
      <trkpt lat="45.30547" lon="5.84126">
        <ele>1430.4399414062</ele>
        <time>2017-02-09T12:14:02Z</time>
      </trkpt>
      <trkpt lat="45.30537" lon="5.84107">
        <ele>1425.4399414062</ele>
        <time>2017-02-09T12:14:10Z</time>
      </trkpt>
      <trkpt lat="45.30515" lon="5.84089">
        <ele>1421.4399414062</ele>
        <time>2017-02-09T12:14:16Z</time>
      </trkpt>
      <trkpt lat="45.30508" lon="5.84082">
        <ele>1418.4399414062</ele>
        <time>2017-02-09T12:14:20Z</time>
      </trkpt>
      <trkpt lat="45.30512" lon="5.84073">
        <ele>1413.4399414062</ele>
        <time>2017-02-09T12:14:26Z</time>
      </trkpt>
      <trkpt lat="45.30507" lon="5.84064">
        <ele>1412.4399414062</ele>
        <time>2017-02-09T12:14:35Z</time>
      </trkpt>
      <trkpt lat="45.305" lon="5.84059">
        <ele>1402.4399414062</ele>
        <time>2017-02-09T12:14:41Z</time>
      </trkpt>
      <trkpt lat="45.30488" lon="5.84045">
        <ele>1399.4389648438</ele>
        <time>2017-02-09T12:14:47Z</time>
      </trkpt>
      <trkpt lat="45.30476" lon="5.84031">
        <ele>1397.4389648438</ele>
        <time>2017-02-09T12:14:51Z</time>
      </trkpt>
      <trkpt lat="45.30454" lon="5.84022">
        <ele>1394.4389648438</ele>
        <time>2017-02-09T12:14:55Z</time>
      </trkpt>
      <trkpt lat="45.3043" lon="5.84015">
        <ele>1393.4389648438</ele>
        <time>2017-02-09T12:15:00Z</time>
      </trkpt>
      <trkpt lat="45.30391" lon="5.8399">
        <ele>1392.4389648438</ele>
        <time>2017-02-09T12:15:06Z</time>
      </trkpt>
      <trkpt lat="45.30379" lon="5.83981">
        <ele>1392.4389648438</ele>
        <time>2017-02-09T12:15:08Z</time>
      </trkpt>
      <trkpt lat="45.30361" lon="5.83956">
        <ele>1393.4389648438</ele>
        <time>2017-02-09T12:15:12Z</time>
      </trkpt>
      <trkpt lat="45.30331" lon="5.83925">
        <ele>1389.4389648438</ele>
        <time>2017-02-09T12:15:17Z</time>
      </trkpt>
      <trkpt lat="45.3032" lon="5.83945">
        <ele>1385.4389648438</ele>
        <time>2017-02-09T12:15:20Z</time>
      </trkpt>
      <trkpt lat="45.30326" lon="5.83975">
        <ele>1377.4389648438</ele>
        <time>2017-02-09T12:15:25Z</time>
      </trkpt>
      <trkpt lat="45.30333" lon="5.8399">
        <ele>1375.4389648438</ele>
        <time>2017-02-09T12:15:27Z</time>
      </trkpt>
      <trkpt lat="45.30343" lon="5.84018">
        <ele>1372.4389648438</ele>
        <time>2017-02-09T12:15:31Z</time>
      </trkpt>
      <trkpt lat="45.30324" lon="5.84042">
        <ele>1371.4389648438</ele>
        <time>2017-02-09T12:15:37Z</time>
      </trkpt>
      <trkpt lat="45.30304" lon="5.84012">
        <ele>1366.4389648438</ele>
        <time>2017-02-09T12:15:43Z</time>
      </trkpt>
      <trkpt lat="45.30264" lon="5.83986">
        <ele>1363.4389648438</ele>
        <time>2017-02-09T12:15:49Z</time>
      </trkpt>
      <trkpt lat="45.30239" lon="5.83951">
        <ele>1361.4389648438</ele>
        <time>2017-02-09T12:15:58Z</time>
      </trkpt>
      <trkpt lat="45.30221" lon="5.83945">
        <ele>1359.4389648438</ele>
        <time>2017-02-09T12:16:00Z</time>
      </trkpt>
      <trkpt lat="45.30185" lon="5.83954">
        <ele>1635.4389648438</ele>
        <time>2017-02-09T12:16:05Z</time>
      </trkpt>
      <trkpt lat="45.30178" lon="5.83958">
        <ele>1585.4389648438</ele>
        <time>2017-02-09T12:16:06Z</time>
      </trkpt>
      <trkpt lat="45.30156" lon="5.83967">
        <ele>1488.4389648438</ele>
        <time>2017-02-09T12:16:09Z</time>
      </trkpt>
      <trkpt lat="45.30177" lon="5.83968">
        <ele>1581.4389648438</ele>
        <time>2017-02-09T12:16:19Z</time>
      </trkpt>
      <trkpt lat="45.30185" lon="5.83971">
        <ele>1548.4389648438</ele>
        <time>2017-02-09T12:16:20Z</time>
      </trkpt>
      <trkpt lat="45.30224" lon="5.83993">
        <ele>1412.4389648438</ele>
        <time>2017-02-09T12:16:25Z</time>
      </trkpt>
      <trkpt lat="45.30219" lon="5.84009">
        <ele>1410.4389648438</ele>
        <time>2017-02-09T12:16:26Z</time>
      </trkpt>
      <trkpt lat="45.30221" lon="5.84029">
        <ele>1387.4389648438</ele>
        <time>2017-02-09T12:16:28Z</time>
      </trkpt>
      <trkpt lat="45.30219" lon="5.84076">
        <ele>1361.4389648438</ele>
        <time>2017-02-09T12:16:33Z</time>
      </trkpt>
      <trkpt lat="45.30212" lon="5.8409">
        <ele>1338.4389648438</ele>
        <time>2017-02-09T12:16:38Z</time>
      </trkpt>
      <trkpt lat="45.30206" lon="5.84068">
        <ele>1340.4389648438</ele>
        <time>2017-02-09T12:16:45Z</time>
      </trkpt>
      <trkpt lat="45.30173" lon="5.84054">
        <ele>1338.4389648438</ele>
        <time>2017-02-09T12:16:51Z</time>
      </trkpt>
      <trkpt lat="45.30159" lon="5.84056">
        <ele>1340.4389648438</ele>
        <time>2017-02-09T12:16:53Z</time>
      </trkpt>
      <trkpt lat="45.30119" lon="5.84068">
        <ele>1333.4389648438</ele>
        <time>2017-02-09T12:16:59Z</time>
      </trkpt>
      <trkpt lat="45.30116" lon="5.84079">
        <ele>1332.4389648438</ele>
        <time>2017-02-09T12:17:00Z</time>
      </trkpt>
      <trkpt lat="45.3007" lon="5.841">
        <ele>1329.4389648438</ele>
        <time>2017-02-09T12:17:06Z</time>
      </trkpt>
      <trkpt lat="45.30041" lon="5.84089">
        <ele>1327.4389648438</ele>
        <time>2017-02-09T12:17:11Z</time>
      </trkpt>
      <trkpt lat="45.30005" lon="5.84096">
        <ele>1324.4389648438</ele>
        <time>2017-02-09T12:17:16Z</time>
      </trkpt>
      <trkpt lat="45.29989" lon="5.84101">
        <ele>1324.4389648438</ele>
        <time>2017-02-09T12:17:19Z</time>
      </trkpt>
      <trkpt lat="45.29965" lon="5.84082">
        <ele>1314.4379882812</ele>
        <time>2017-02-09T12:17:25Z</time>
      </trkpt>
      <trkpt lat="45.29959" lon="5.84095">
        <ele>1306.4379882812</ele>
        <time>2017-02-09T12:17:31Z</time>
      </trkpt>
      <trkpt lat="45.29972" lon="5.84104">
        <ele>1302.4379882812</ele>
        <time>2017-02-09T12:17:33Z</time>
      </trkpt>
      <trkpt lat="45.30009" lon="5.84133">
        <ele>1301.4389648438</ele>
        <time>2017-02-09T12:17:39Z</time>
      </trkpt>
      <trkpt lat="45.30032" lon="5.84152">
        <ele>1302.4389648438</ele>
        <time>2017-02-09T12:17:42Z</time>
      </trkpt>
      <trkpt lat="45.30025" lon="5.84167">
        <ele>1301.4389648438</ele>
        <time>2017-02-09T12:17:43Z</time>
      </trkpt>
      <trkpt lat="45.30014" lon="5.84216">
        <ele>1297.4389648438</ele>
        <time>2017-02-09T12:17:48Z</time>
      </trkpt>
      <trkpt lat="45.29974" lon="5.84241">
        <ele>1293.4389648438</ele>
        <time>2017-02-09T12:17:53Z</time>
      </trkpt>
      <trkpt lat="45.29965" lon="5.84253">
        <ele>1291.4389648438</ele>
        <time>2017-02-09T12:17:55Z</time>
      </trkpt>
      <trkpt lat="45.29952" lon="5.84255">
        <ele>1289.4389648438</ele>
        <time>2017-02-09T12:17:57Z</time>
      </trkpt>
      <trkpt lat="45.29933" lon="5.84248">
        <ele>1291.4389648438</ele>
        <time>2017-02-09T12:18:02Z</time>
      </trkpt>
      <trkpt lat="45.29892" lon="5.84291">
        <ele>1288.4389648438</ele>
        <time>2017-02-09T12:18:08Z</time>
      </trkpt>
      <trkpt lat="45.29867" lon="5.84348">
        <ele>1269.4389648438</ele>
        <time>2017-02-09T12:18:14Z</time>
      </trkpt>
      <trkpt lat="45.29855" lon="5.84359">
        <ele>1272.4389648438</ele>
        <time>2017-02-09T12:18:16Z</time>
      </trkpt>
      <trkpt lat="45.29846" lon="5.84363">
        <ele>1270.4389648438</ele>
        <time>2017-02-09T12:18:17Z</time>
      </trkpt>
      <trkpt lat="45.29814" lon="5.84365">
        <ele>1266.4389648438</ele>
        <time>2017-02-09T12:18:23Z</time>
      </trkpt>
      <trkpt lat="45.29803" lon="5.84371">
        <ele>1263.4379882812</ele>
        <time>2017-02-09T12:18:25Z</time>
      </trkpt>
      <trkpt lat="45.29801" lon="5.84382">
        <ele>1262.4389648438</ele>
        <time>2017-02-09T12:18:27Z</time>
      </trkpt>
      <trkpt lat="45.29784" lon="5.84396">
        <ele>1263.4379882812</ele>
        <time>2017-02-09T12:18:31Z</time>
      </trkpt>
      <trkpt lat="45.29769" lon="5.84404">
        <ele>1255.4379882812</ele>
        <time>2017-02-09T12:18:39Z</time>
      </trkpt>
      <trkpt lat="45.29759" lon="5.84412">
        <ele>1250.4379882812</ele>
        <time>2017-02-09T12:18:55Z</time>
      </trkpt>
      <trkpt lat="45.29741" lon="5.84417">
        <ele>1246.4379882812</ele>
        <time>2017-02-09T12:19:00Z</time>
      </trkpt>
      <trkpt lat="45.29725" lon="5.84427">
        <ele>1243.4379882812</ele>
        <time>2017-02-09T12:19:05Z</time>
      </trkpt>
      <trkpt lat="45.29701" lon="5.84432">
        <ele>1242.4379882812</ele>
        <time>2017-02-09T12:19:10Z</time>
      </trkpt>
      <trkpt lat="45.29681" lon="5.84448">
        <ele>1236.4379882812</ele>
        <time>2017-02-09T12:19:16Z</time>
      </trkpt>
      <trkpt lat="45.29677" lon="5.84458">
        <ele>1235.4379882812</ele>
        <time>2017-02-09T12:19:18Z</time>
      </trkpt>
      <trkpt lat="45.29676" lon="5.84477">
        <ele>1233.4379882812</ele>
        <time>2017-02-09T12:19:34Z</time>
      </trkpt>
      <trkpt lat="45.2967" lon="5.84488">
        <ele>1234.4379882812</ele>
        <time>2017-02-09T12:19:39Z</time>
      </trkpt>
      <trkpt lat="45.29658" lon="5.84506">
        <ele>1232.4379882812</ele>
        <time>2017-02-09T12:19:48Z</time>
      </trkpt>
      <trkpt lat="45.29646" lon="5.8452">
        <ele>1232.4379882812</ele>
        <time>2017-02-09T12:19:56Z</time>
      </trkpt>
      <trkpt lat="45.29643" lon="5.84532">
        <ele>1227.4379882812</ele>
        <time>2017-02-09T12:20:00Z</time>
      </trkpt>
    </trkseg>
  </trk>
</gpx>